createdAt,value
2023-05-14T00:00:39.298Z,8.75
2023-05-14T00:03:05.852Z,8.90
2023-05-14T00:05:44.615Z,9.32
2023-05-14T00:08:11.094Z,9.02
2023-05-14T00:10:44.042Z,9.13
2023-05-14T00:13:10.703Z,9.73
2023-05-14T00:15:37.643Z,9.43
2023-05-14T00:18:04.330Z,9.65
2023-05-14T00:20:42.890Z,9.55
2023-05-14T00:23:09.825Z,9.02
2023-05-14T00:25:36.428Z,9.98
2023-05-14T00:28:03.867Z,9.15
2023-05-14T00:30:39.818Z,9.15
2023-05-14T00:33:07.340Z,8.38
2023-05-14T00:35:35.795Z,9.60
2023-05-14T00:38:03.670Z,9.48
2023-05-14T00:40:39.274Z,8.32
2023-05-14T00:43:05.909Z,8.57
2023-05-14T00:45:32.368Z,9.20
2023-05-14T00:47:58.927Z,9.10
2023-05-14T00:50:26.042Z,6.72
2023-05-14T00:52:53.568Z,8.15
2023-05-14T00:55:21.526Z,8.05
2023-05-14T00:57:48.995Z,8.23
2023-05-14T01:00:15.906Z,8.00
2023-05-14T01:02:42.486Z,7.97
2023-05-14T01:05:09.466Z,8.23
2023-05-14T01:08:01.681Z,8.57
2023-05-14T01:10:36.851Z,8.20
2023-05-14T01:13:11.619Z,8.15
2023-05-14T01:15:52.793Z,8.93
2023-05-14T01:20:46.265Z,8.40
2023-05-14T01:23:12.913Z,9.07
2023-05-14T01:25:39.464Z,8.40
2023-05-14T01:28:09.701Z,8.70
2023-05-14T01:30:39.298Z,8.90
2023-05-14T01:33:23.643Z,8.68
2023-05-14T01:35:53.640Z,9.07
2023-05-14T01:38:21.720Z,8.32
2023-05-14T01:41:01.206Z,8.77
2023-05-14T01:43:28.310Z,7.85
2023-05-14T01:45:55.622Z,8.15
2023-05-14T01:48:22.607Z,8.10
2023-05-14T01:50:49.317Z,7.85
2023-05-14T01:53:15.809Z,9.02
2023-05-14T01:55:42.419Z,7.75
2023-05-14T01:58:09.034Z,8.52
2023-05-14T02:00:35.690Z,9.27
2023-05-14T02:03:02.195Z,8.85
2023-05-14T02:05:31.854Z,8.70
2023-05-14T02:07:58.479Z,9.18
2023-05-14T02:10:25.258Z,8.90
2023-05-14T02:12:51.813Z,9.30
2023-05-14T02:15:18.668Z,9.00
2023-05-14T02:17:45.272Z,8.38
2023-05-14T02:20:12.498Z,8.75
2023-05-14T02:22:42.150Z,8.80
2023-05-14T02:25:15.078Z,7.50
2023-05-14T02:27:41.530Z,8.43
2023-05-14T02:30:09.282Z,9.23
2023-05-14T02:32:36.462Z,9.07
2023-05-14T02:35:03.516Z,8.88
2023-05-14T02:37:30.002Z,8.98
2023-05-14T02:40:08.452Z,8.98
2023-05-14T02:42:44.946Z,8.63
2023-05-14T02:45:11.514Z,9.15
2023-05-14T02:47:38.423Z,9.00
2023-05-14T02:52:56.921Z,8.05
2023-05-14T02:55:23.873Z,8.73
2023-05-14T02:57:50.446Z,8.25
2023-05-14T03:00:17.426Z,8.88
2023-05-14T03:02:44.903Z,8.40
2023-05-14T03:05:11.771Z,8.80
2023-05-14T03:07:38.172Z,8.98
2023-05-14T03:10:05.852Z,8.32
2023-05-14T03:12:32.393Z,8.00
2023-05-14T03:14:58.833Z,9.13
2023-05-14T03:17:25.424Z,8.25
2023-05-14T03:19:51.832Z,8.93
2023-05-14T03:22:18.558Z,8.85
2023-05-14T03:24:45.038Z,8.60
2023-05-14T03:27:11.505Z,8.88
2023-05-14T03:29:38.072Z,9.35
2023-05-14T03:32:04.987Z,8.77
2023-05-14T03:34:31.383Z,9.38
2023-05-14T03:36:59.642Z,8.77
2023-05-14T03:39:29.157Z,9.23
2023-05-14T03:41:57.194Z,8.73
2023-05-14T03:44:23.929Z,9.98
2023-05-14T03:46:50.686Z,9.45
2023-05-14T03:49:23.386Z,8.93
2023-05-14T03:52:07.447Z,8.20
2023-05-14T03:54:34.343Z,8.85
2023-05-14T03:57:21.572Z,8.23
2023-05-14T03:59:48.231Z,8.75
2023-05-14T04:02:14.905Z,7.80
2023-05-14T04:04:42.226Z,8.85
2023-05-14T04:07:09.193Z,9.02
2023-05-14T04:09:36.100Z,8.73
2023-05-14T04:16:06.882Z,8.45
2023-05-14T04:18:35.612Z,7.90
2023-05-14T04:21:02.580Z,7.75
2023-05-14T04:23:29.701Z,7.72
2023-05-14T04:26:05.676Z,7.85
2023-05-14T04:29:08.701Z,7.88
2023-05-14T04:31:36.482Z,9.23
2023-05-14T04:34:02.994Z,7.68
2023-05-14T04:44:03.491Z,7.72
2023-05-14T04:46:30.275Z,7.55
2023-05-14T04:49:06.089Z,8.27
2023-05-14T04:51:32.747Z,7.65
2023-05-14T04:53:59.344Z,8.30
2023-05-14T04:56:28.289Z,7.63
2023-05-14T04:58:54.853Z,7.70
2023-05-14T05:01:24.359Z,7.63
2023-05-14T05:04:17.505Z,7.80
2023-05-14T05:06:42.203Z,7.75
2023-05-14T05:09:26.556Z,7.85
2023-05-14T05:11:53.143Z,7.43
2023-05-14T05:14:19.712Z,7.72
2023-05-14T05:16:58.610Z,7.50
2023-05-14T05:19:35.757Z,8.05
2023-05-14T05:22:17.150Z,8.07
2023-05-14T05:24:43.776Z,6.97
2023-05-14T05:27:10.438Z,7.25
2023-05-14T05:29:37.213Z,7.38
2023-05-14T05:32:04.092Z,8.32
2023-05-14T05:34:30.529Z,8.25
2023-05-14T05:36:57.160Z,7.10
2023-05-14T05:39:35.112Z,7.47
2023-05-14T05:42:02.959Z,7.80
2023-05-14T05:44:29.527Z,7.43
2023-05-14T05:46:58.975Z,7.47
2023-05-14T05:49:27.768Z,7.35
2023-05-14T05:51:54.214Z,7.57
2023-05-14T05:54:49.709Z,6.50
2023-05-14T05:57:16.128Z,7.18
2023-05-14T05:59:42.561Z,7.15
2023-05-14T06:02:09.280Z,6.38
2023-05-14T06:04:35.799Z,6.90
2023-05-14T06:07:06.524Z,7.65
2023-05-14T06:09:48.161Z,7.97
2023-05-14T06:12:14.916Z,7.05
2023-05-14T06:14:41.373Z,7.25
2023-05-14T06:17:08.407Z,7.82
2023-05-14T06:23:15.447Z,7.65
2023-05-14T06:25:41.981Z,6.28
2023-05-14T06:28:11.697Z,7.85
2023-05-14T06:30:38.343Z,6.93
2023-05-14T06:33:04.736Z,6.97
2023-05-14T06:35:38.732Z,7.35
2023-05-14T06:38:05.215Z,6.93
2023-05-14T06:40:32.016Z,7.47
2023-05-14T06:42:58.464Z,6.60
2023-05-14T06:45:33.373Z,7.75
2023-05-14T06:48:00.076Z,7.13
2023-05-14T06:50:26.812Z,6.55
2023-05-14T06:52:55.717Z,7.22
2023-05-14T06:55:22.258Z,6.40
2023-05-14T06:57:48.933Z,7.25
2023-05-14T07:00:15.943Z,6.68
2023-05-14T07:02:42.387Z,6.07
2023-05-14T07:05:09.195Z,7.10
2023-05-14T07:07:45.194Z,7.30
2023-05-14T07:10:11.720Z,6.45
2023-05-14T07:12:38.480Z,6.15
2023-05-14T07:15:05.704Z,6.80
2023-05-14T07:17:32.156Z,6.53
2023-05-14T07:20:10.528Z,6.38
2023-05-14T07:22:36.959Z,6.80
2023-05-14T07:25:03.586Z,6.47
2023-05-14T07:27:30.074Z,6.68
2023-05-14T07:29:56.858Z,5.78
2023-05-14T07:32:25.153Z,6.60
2023-05-14T07:34:51.955Z,6.35
2023-05-14T07:37:18.856Z,6.97
2023-05-14T07:39:45.647Z,6.70
2023-05-14T07:42:24.633Z,6.63
2023-05-14T07:44:54.713Z,7.45
2023-05-14T07:47:21.408Z,7.80
2023-05-14T07:50:06.525Z,7.70
2023-05-14T07:52:32.953Z,7.78
2023-05-14T07:55:12.690Z,7.85
2023-05-14T07:57:39.403Z,7.53
2023-05-14T08:00:09.269Z,7.78
2023-05-14T08:02:45.285Z,7.72
2023-05-14T08:05:15.174Z,7.72
2023-05-14T08:07:41.648Z,7.55
2023-05-14T08:10:17.425Z,8.50
2023-05-14T08:12:44.022Z,8.15
2023-05-14T08:15:19.408Z,8.40
2023-05-14T08:17:45.936Z,7.97
2023-05-14T08:20:12.759Z,8.10
2023-05-14T08:22:39.413Z,7.85
2023-05-14T08:25:06.620Z,8.00
2023-05-14T08:27:45.007Z,8.15
2023-05-14T08:30:11.921Z,8.65
2023-05-14T08:32:38.756Z,7.50
2023-05-14T08:35:05.907Z,7.60
2023-05-14T08:37:32.543Z,8.35
2023-05-14T08:40:14.502Z,8.70
2023-05-14T08:42:41.904Z,7.55
2023-05-14T08:45:17.111Z,7.72
2023-05-14T08:47:47.369Z,7.57
2023-05-14T08:50:16.490Z,7.68
2023-05-14T08:52:43.126Z,7.68
2023-05-14T08:55:11.673Z,8.18
2023-05-14T08:57:54.450Z,7.25
2023-05-14T09:00:21.365Z,7.28
2023-05-14T09:02:48.958Z,7.40
2023-05-14T09:05:33.673Z,7.35
2023-05-14T09:08:03.462Z,7.00
2023-05-14T09:10:55.517Z,6.57
2023-05-14T09:13:31.074Z,7.65
2023-05-14T09:15:58.902Z,6.35
2023-05-14T09:18:37.841Z,6.63
2023-05-14T09:21:15.536Z,7.18
2023-05-14T09:23:58.797Z,5.97
2023-05-14T09:26:26.544Z,5.82
2023-05-14T09:29:13.673Z,5.88
2023-05-14T09:37:10.327Z,5.85
2023-05-14T09:40:10.710Z,5.90
2023-05-14T09:49:51.984Z,5.80
2023-05-14T09:52:19.449Z,6.45
2023-05-14T10:18:58.996Z,5.50
2023-05-14T10:33:28.101Z,5.75
2023-05-14T10:40:09.982Z,6.32
2023-05-14T10:42:43.561Z,5.60
2023-05-14T10:53:52.565Z,5.28
2023-05-14T10:56:33.633Z,5.47
2023-05-14T10:59:12.153Z,5.68
2023-05-14T11:01:41.070Z,5.80
2023-05-14T11:04:09.787Z,5.53
2023-05-14T11:06:54.051Z,4.97
2023-05-14T11:09:24.239Z,5.18
2023-05-14T11:11:50.938Z,5.43
2023-05-14T11:17:13.592Z,5.32
2023-05-14T11:23:46.444Z,5.78
2023-05-14T11:26:19.387Z,5.15
2023-05-14T11:28:50.269Z,5.80
2023-05-14T11:34:37.280Z,5.28
2023-05-14T11:36:53.995Z,5.53
2023-05-14T11:39:28.139Z,5.15
2023-05-14T11:41:54.650Z,5.22
2023-05-14T11:44:31.225Z,5.22
2023-05-14T11:47:10.525Z,4.85
2023-05-14T11:49:52.022Z,5.15
2023-05-14T11:52:22.031Z,5.05
2023-05-14T11:54:54.739Z,5.47
2023-05-14T11:57:22.190Z,4.78
2023-05-14T12:00:00.486Z,3.83
2023-05-14T12:02:42.712Z,4.85
2023-05-14T12:05:13.246Z,4.45
2023-05-14T12:07:46.503Z,5.50
2023-05-14T12:10:20.247Z,4.78
2023-05-14T12:13:13.595Z,4.82
2023-05-14T12:16:13.607Z,4.85
2023-05-14T12:19:39.834Z,4.80
2023-05-14T12:22:24.302Z,4.38
2023-05-14T12:28:23.801Z,4.80
2023-05-14T12:31:02.957Z,4.95
2023-05-14T12:33:41.419Z,5.07
2023-05-14T12:36:21.339Z,5.03
2023-05-14T12:39:03.476Z,4.70
2023-05-14T12:41:33.750Z,4.90
2023-05-14T12:44:15.718Z,4.40
2023-05-14T12:46:47.109Z,5.88
2023-05-14T12:52:33.323Z,5.28
2023-05-14T13:01:43.001Z,5.40
2023-05-14T13:04:39.771Z,5.32
2023-05-14T13:10:52.400Z,4.78
2023-05-14T13:17:25.822Z,5.30
2023-05-14T13:19:58.673Z,5.80
2023-05-14T13:22:25.275Z,5.47
2023-05-14T13:24:51.774Z,5.53
2023-05-14T13:27:21.277Z,5.22
2023-05-14T13:29:47.740Z,5.10
2023-05-14T13:32:14.185Z,4.78
2023-05-14T13:34:40.791Z,4.57
2023-05-14T13:37:10.916Z,4.68
2023-05-14T13:39:37.396Z,4.65
2023-05-14T13:42:04.090Z,5.25
2023-05-14T13:44:30.926Z,5.10
2023-05-14T13:49:37.844Z,4.97
2023-05-14T13:52:04.704Z,4.65
2023-05-14T13:54:42.398Z,4.60
2023-05-14T13:57:08.861Z,4.45
2023-05-14T13:59:35.867Z,4.65
2023-05-14T14:02:08.872Z,5.25
2023-05-14T14:04:35.468Z,4.72
2023-05-14T14:07:19.512Z,4.50
2023-05-14T14:09:46.148Z,5.03
2023-05-14T14:12:13.692Z,4.63
2023-05-14T14:15:05.733Z,4.43
2023-05-14T14:17:56.494Z,4.07
2023-05-14T14:20:21.143Z,4.38
2023-05-14T14:23:35.152Z,4.72
2023-05-14T14:26:21.504Z,4.35
2023-05-14T14:29:46.629Z,4.43
2023-05-14T14:32:16.350Z,4.72
2023-05-14T14:34:43.037Z,5.47
2023-05-14T14:37:09.730Z,4.47
2023-05-14T14:39:36.308Z,4.65
2023-05-14T14:42:40.062Z,4.53
2023-05-14T14:45:28.708Z,4.65
2023-05-14T14:51:33.042Z,4.10
2023-05-14T14:53:59.696Z,3.83
2023-05-14T14:56:35.405Z,4.30
2023-05-14T14:59:01.783Z,4.38
2023-05-14T15:01:28.625Z,4.75
2023-05-14T15:03:55.119Z,4.38
2023-05-14T15:06:21.725Z,4.85
2023-05-14T15:08:48.196Z,4.90
2023-05-14T15:11:14.658Z,4.40
2023-05-14T15:13:41.911Z,3.95
2023-05-14T15:16:08.715Z,4.13
2023-05-14T15:18:35.226Z,4.68
2023-05-14T15:21:01.751Z,4.22
2023-05-14T15:23:40.748Z,4.55
2023-05-14T15:26:07.230Z,4.40
2023-05-14T15:28:33.732Z,4.25
2023-05-14T15:31:00.284Z,4.65
2023-05-14T15:33:26.815Z,4.28
2023-05-14T15:35:55.754Z,4.38
2023-05-14T15:38:22.280Z,3.97
2023-05-14T15:40:50.915Z,4.95
2023-05-14T15:43:42.866Z,4.53
2023-05-14T15:46:22.890Z,4.22
2023-05-14T15:48:52.836Z,4.63
2023-05-14T15:58:17.096Z,4.03
2023-05-14T16:00:43.718Z,4.90
2023-05-14T16:03:13.298Z,4.13
2023-05-14T16:05:40.081Z,5.03
2023-05-14T16:08:06.777Z,4.88
2023-05-14T16:10:39.350Z,4.70
2023-05-14T16:13:06.032Z,4.53
2023-05-14T16:15:32.450Z,4.93
2023-05-14T16:25:05.981Z,4.80
2023-05-14T16:27:32.657Z,4.75
2023-05-14T16:29:59.140Z,5.28
2023-05-14T16:32:25.720Z,5.00
2023-05-14T16:34:52.490Z,5.03
2023-05-14T16:37:22.326Z,5.47
2023-05-14T16:39:55.935Z,5.07
2023-05-14T16:42:22.562Z,5.00
2023-05-14T16:44:49.289Z,5.18
2023-05-14T16:47:15.956Z,5.57
2023-05-14T16:49:43.341Z,4.90
2023-05-14T16:52:10.629Z,4.22
2023-05-14T16:54:37.375Z,4.72
2023-05-14T16:57:05.022Z,4.68
2023-05-14T16:59:31.991Z,5.28
2023-05-14T17:01:58.827Z,4.35
2023-05-14T17:04:26.747Z,4.68
2023-05-14T17:06:54.102Z,4.65
2023-05-14T17:09:23.845Z,4.78
2023-05-14T17:11:50.802Z,5.07
2023-05-14T17:14:17.454Z,5.15
2023-05-14T17:16:43.961Z,5.70
2023-05-14T17:19:10.741Z,5.78
2023-05-14T17:21:37.407Z,6.13
2023-05-14T17:24:04.054Z,6.28
2023-05-14T17:26:39.543Z,6.00
2023-05-14T17:29:06.229Z,6.43
2023-05-14T17:31:32.830Z,5.88
2023-05-14T17:33:59.533Z,6.47
2023-05-14T17:36:26.289Z,6.50
2023-05-14T17:38:52.864Z,7.32
2023-05-14T17:41:22.283Z,5.88
2023-05-14T17:43:57.864Z,6.45
2023-05-14T17:46:25.226Z,6.28
2023-05-14T17:49:31.422Z,5.47
2023-05-14T17:51:59.019Z,6.07
2023-05-14T17:54:48.174Z,6.03
2023-05-14T17:57:16.113Z,6.20
2023-05-14T17:59:45.454Z,6.07
2023-05-14T18:02:34.291Z,6.43
2023-05-14T18:05:02.828Z,6.25
2023-05-14T18:07:34.442Z,5.80
2023-05-14T18:10:01.329Z,5.70
2023-05-14T18:12:31.800Z,6.40
2023-05-14T18:15:27.840Z,5.63
2023-05-14T18:17:58.974Z,5.97
2023-05-14T18:20:26.427Z,5.78
2023-05-14T18:22:55.363Z,6.35
2023-05-14T18:25:23.247Z,5.95
2023-05-14T18:27:50.690Z,8.55
2023-05-14T18:30:20.765Z,5.45
2023-05-14T18:32:49.652Z,5.20
2023-05-14T18:35:43.374Z,5.43
2023-05-14T18:46:07.308Z,5.88
2023-05-14T18:48:41.186Z,5.45
2023-05-14T18:53:51.774Z,5.45
2023-05-14T18:56:25.729Z,5.18
2023-05-14T18:58:58.560Z,4.55
2023-05-14T19:01:28.471Z,4.70
2023-05-14T19:03:56.197Z,5.13
2023-05-14T19:09:07.234Z,5.35
2023-05-14T19:11:37.092Z,4.70
2023-05-14T19:14:10.837Z,5.03
2023-05-14T19:16:38.087Z,5.38
2023-05-14T19:19:07.650Z,5.72
2023-05-14T19:21:35.063Z,6.15
2023-05-14T19:24:27.519Z,6.57
2023-05-14T19:26:57.439Z,6.32
2023-05-14T19:29:42.219Z,6.57
2023-05-14T19:32:09.721Z,6.10
2023-05-14T19:34:51.778Z,5.38
2023-05-14T19:37:31.795Z,5.95
2023-05-14T19:40:13.724Z,5.20
2023-05-14T19:42:40.740Z,4.63
2023-05-14T19:45:17.486Z,4.90
2023-05-14T19:47:50.284Z,5.47
2023-05-14T19:50:22.807Z,5.13
2023-05-14T19:52:57.365Z,5.47
2023-05-14T19:55:29.928Z,4.95
2023-05-14T19:57:59.135Z,5.22
2023-05-14T20:00:26.731Z,5.68
2023-05-14T20:02:54.976Z,5.90
2023-05-14T20:08:10.508Z,5.15
2023-05-14T20:10:44.953Z,5.88
2023-05-14T20:13:18.370Z,5.13
2023-05-14T20:15:48.470Z,5.53
2023-05-14T20:18:43.216Z,5.38
2023-05-14T20:21:12.603Z,5.60
2023-05-14T20:23:42.067Z,5.57
2023-05-14T20:29:11.422Z,5.72
2023-05-14T20:34:43.868Z,5.63
2023-05-14T20:37:21.009Z,5.82
2023-05-14T20:39:53.358Z,5.18
2023-05-14T20:49:21.281Z,5.30
2023-05-14T20:52:12.967Z,5.55
2023-05-14T20:55:10.763Z,4.85
2023-05-14T20:57:41.152Z,5.53
2023-05-14T21:00:14.104Z,5.63
2023-05-14T21:09:00.338Z,5.03
2023-05-14T21:11:56.136Z,4.90
2023-05-14T21:14:26.840Z,5.25
2023-05-14T21:35:52.965Z,5.40
2023-05-14T21:41:52.895Z,6.13
2023-05-14T21:44:23.635Z,5.35
2023-05-14T21:51:30.340Z,5.55
2023-05-14T22:05:27.255Z,5.90
2023-05-14T22:10:41.720Z,6.80
2023-05-14T22:13:11.499Z,5.65
2023-05-14T22:15:48.315Z,6.05
2023-05-14T22:18:28.314Z,5.78
2023-05-14T22:21:23.135Z,6.30
2023-05-14T22:23:52.773Z,6.40
2023-05-14T22:26:25.192Z,6.60
2023-05-14T22:31:42.376Z,5.43
2023-05-14T22:34:18.157Z,6.60
2023-05-14T22:36:49.464Z,6.75
2023-05-14T22:39:22.766Z,6.53
2023-05-14T22:41:55.822Z,6.28
2023-05-14T22:44:30.046Z,5.35
2023-05-14T22:47:14.983Z,6.72
2023-05-14T22:49:44.200Z,6.38
2023-05-14T22:52:39.420Z,6.88
2023-05-14T22:55:11.267Z,6.22
2023-05-14T22:58:08.048Z,6.20
2023-05-14T23:00:35.230Z,7.85
2023-05-14T23:03:05.179Z,6.97
2023-05-14T23:05:31.906Z,7.07
2023-05-14T23:07:58.481Z,7.90
2023-05-14T23:10:25.173Z,6.43
2023-05-14T23:12:51.903Z,7.82
2023-05-14T23:15:18.471Z,6.82
2023-05-14T23:17:45.281Z,7.38
2023-05-14T23:20:15.204Z,8.20
2023-05-14T23:22:41.855Z,8.02
2023-05-14T23:25:09.038Z,7.82
2023-05-14T23:27:38.562Z,8.05
2023-05-14T23:30:06.031Z,7.90
2023-05-14T23:32:32.678Z,8.18
2023-05-14T23:34:59.354Z,8.80
2023-05-14T23:37:26.352Z,7.75
2023-05-14T23:39:53.395Z,8.40
2023-05-14T23:42:20.816Z,8.15
2023-05-14T23:44:47.488Z,7.80
2023-05-14T23:47:17.353Z,7.03
2023-05-14T23:49:44.096Z,8.25
2023-05-14T23:52:11.728Z,8.07
2023-05-14T23:59:59.912Z,9.60
